NKS1217 YSSY-YMML
Flight info
| Callsign | NKS1217 |
|---|---|
| Flight time | 1h 25m |
| Altitude | 32000 |
| Route | MARUB7/34R WOL H65 LEECE Q29 ML |
| Aircraft | A320/M-SDE3FGHIRWY/LB1 |
Departure
| Time | 2026-04-30 08:40 |
|---|---|
| Airport | Sydney Kingsford Smith International Airport (YSSY) |
Arrival
| Time | 2026-04-30 10:05 |
|---|---|
| Airport | Melbourne Airport (YMML) |
| Time | Latitude | Longitude | Altitude | Speed | Heading |
|---|---|---|---|---|---|
| 2026-04-30 07:32 | -33.93863 | 151.16957 | 30 ft | 0 kts | 254° |
| 2026-04-30 08:10 | -33.93861 | 151.16962 | 30 ft | 2 kts | 253° |
| 2026-04-30 08:11 | -33.93856 | 151.16984 | 30 ft | 3 kts | 252° |
| 2026-04-30 08:11 | -33.93850 | 151.17007 | 30 ft | 3 kts | 249° |
| 2026-04-30 08:11 | -33.93842 | 151.17030 | 30 ft | 3 kts | 244° |
| 2026-04-30 08:11 | -33.93828 | 151.17057 | 30 ft | 3 kts | 222° |
| 2026-04-30 08:12 | -33.93819 | 151.17066 | 30 ft | 3 kts | 191° |
| 2026-04-30 08:12 | -33.93812 | 151.17068 | 30 ft | 0 kts | 168° |
| 2026-04-30 08:13 | -33.93813 | 151.17068 | 30 ft | 0 kts | 168° |
| 2026-04-30 08:15 | -33.93816 | 151.17069 | 30 ft | 2 kts | 168° |
| 2026-04-30 08:15 | -33.93856 | 151.17079 | 20 ft | 10 kts | 168° |
| 2026-04-30 08:15 | -33.93911 | 151.17093 | 30 ft | 6 kts | 168° |
| 2026-04-30 08:16 | -33.93919 | 151.17095 | 30 ft | 7 kts | 167° |
| 2026-04-30 08:16 | -33.93935 | 151.17099 | 30 ft | 9 kts | 168° |
| 2026-04-30 08:17 | -33.93947 | 151.17102 | 30 ft | 14 kts | 168° |
| 2026-04-30 08:17 | -33.93964 | 151.17106 | 30 ft | 0 kts | 168° |
| 2026-04-30 08:18 | -33.93966 | 151.17107 | 30 ft | 1 kts | 168° |
| 2026-04-30 08:18 | -33.93985 | 151.17122 | 29 ft | 7 kts | 130° |
| 2026-04-30 08:19 | -33.93980 | 151.17187 | 29 ft | 9 kts | 75° |
| 2026-04-30 08:19 | -33.93959 | 151.17273 | 28 ft | 9 kts | 74° |
| 2026-04-30 08:19 | -33.93958 | 151.17277 | 28 ft | 0 kts | 74° |
| 2026-04-30 08:24 | -33.93950 | 151.17309 | 28 ft | 10 kts | 74° |
| 2026-04-30 08:24 | -33.93928 | 151.17405 | 26 ft | 13 kts | 74° |
| 2026-04-30 08:24 | -33.93908 | 151.17490 | 27 ft | 3 kts | 74° |
| 2026-04-30 08:25 | -33.93906 | 151.17499 | 27 ft | 0 kts | 73° |
| 2026-04-30 08:26 | -33.93902 | 151.17513 | 28 ft | 6 kts | 73° |
| 2026-04-30 08:26 | -33.93889 | 151.17567 | 29 ft | 7 kts | 73° |
| 2026-04-30 08:27 | -33.93874 | 151.17633 | 29 ft | 10 kts | 75° |
| 2026-04-30 08:27 | -33.93854 | 151.17718 | 29 ft | 12 kts | 73° |
| 2026-04-30 08:27 | -33.93899 | 151.17779 | 29 ft | 12 kts | 164° |
| 2026-04-30 08:27 | -33.93987 | 151.17803 | 29 ft | 14 kts | 168° |
| 2026-04-30 08:28 | -33.94094 | 151.17829 | 29 ft | 16 kts | 168° |
| 2026-04-30 08:28 | -33.94204 | 151.17859 | 30 ft | 17 kts | 167° |
| 2026-04-30 08:28 | -33.94320 | 151.17887 | 30 ft | 18 kts | 168° |
| 2026-04-30 08:28 | -33.94448 | 151.17908 | 30 ft | 19 kts | 194° |
| 2026-04-30 08:29 | -33.94574 | 151.17895 | 30 ft | 19 kts | 168° |
| 2026-04-30 08:29 | -33.94713 | 151.17933 | 30 ft | 21 kts | 167° |
| 2026-04-30 08:29 | -33.94863 | 151.17969 | 30 ft | 22 kts | 169° |
| 2026-04-30 08:29 | -33.95018 | 151.18010 | 30 ft | 23 kts | 168° |
| 2026-04-30 08:30 | -33.95094 | 151.18039 | 30 ft | 7 kts | 127° |
| 2026-04-30 08:30 | -33.95100 | 151.18101 | 30 ft | 9 kts | 79° |
| 2026-04-30 08:30 | -33.95087 | 151.18182 | 30 ft | 11 kts | 79° |
| 2026-04-30 08:30 | -33.95069 | 151.18281 | 30 ft | 13 kts | 77° |
| 2026-04-30 08:31 | -33.95047 | 151.18397 | 30 ft | 14 kts | 78° |
| 2026-04-30 08:31 | -33.95042 | 151.18425 | 30 ft | 0 kts | 78° |
| 2026-04-30 08:34 | -33.95041 | 151.18431 | 30 ft | 5 kts | 78° |
| 2026-04-30 08:34 | -33.95079 | 151.18511 | 30 ft | 14 kts | 144° |
| 2026-04-30 08:34 | -33.95158 | 151.18589 | 30 ft | 16 kts | 137° |
| 2026-04-30 08:35 | -33.95244 | 151.18684 | 30 ft | 18 kts | 140° |
| 2026-04-30 08:35 | -33.95342 | 151.18725 | 30 ft | 15 kts | 167° |
| 2026-04-30 08:35 | -33.95451 | 151.18755 | 30 ft | 17 kts | 167° |
| 2026-04-30 08:35 | -33.95572 | 151.18786 | 30 ft | 18 kts | 168° |
| 2026-04-30 08:36 | -33.95698 | 151.18819 | 30 ft | 19 kts | 168° |
| 2026-04-30 08:36 | -33.95831 | 151.18853 | 30 ft | 20 kts | 167° |
| 2026-04-30 08:36 | -33.95972 | 151.18890 | 30 ft | 21 kts | 168° |
| 2026-04-30 08:36 | -33.96119 | 151.18927 | 30 ft | 22 kts | 168° |
| 2026-04-30 08:37 | -33.96275 | 151.18967 | 30 ft | 24 kts | 167° |
| 2026-04-30 08:37 | -33.96443 | 151.19012 | 30 ft | 26 kts | 167° |
| 2026-04-30 08:37 | -33.96622 | 151.19058 | 30 ft | 26 kts | 167° |
| 2026-04-30 08:37 | -33.96762 | 151.19067 | 30 ft | 18 kts | 191° |
| 2026-04-30 08:38 | -33.96889 | 151.19082 | 30 ft | 19 kts | 168° |
| 2026-04-30 08:38 | -33.97024 | 151.19116 | 30 ft | 21 kts | 168° |
| 2026-04-30 08:38 | -33.97116 | 151.19156 | 30 ft | 11 kts | 132° |
| 2026-04-30 08:38 | -33.97117 | 151.19253 | 29 ft | 14 kts | 78° |
| 2026-04-30 08:39 | -33.97066 | 151.19365 | 25 ft | 18 kts | 24° |
| 2026-04-30 08:39 | -33.96935 | 151.19341 | 24 ft | 39 kts | 348° |
| 2026-04-30 08:39 | -33.96375 | 151.19198 | 25 ft | 121 kts | 347° |
| 2026-04-30 08:39 | -33.95366 | 151.18931 | 192 ft | 165 kts | 350° |
| 2026-04-30 08:40 | -33.94207 | 151.18644 | 889 ft | 179 kts | 358° |
| 2026-04-30 08:40 | -33.93056 | 151.19047 | 1438 ft | 175 kts | 40° |
| 2026-04-30 08:40 | -33.92350 | 151.20213 | 2026 ft | 175 kts | 70° |
| 2026-04-30 08:40 | -33.92246 | 151.21664 | 2625 ft | 179 kts | 99° |
| 2026-04-30 08:41 | -33.92748 | 151.23043 | 3197 ft | 185 kts | 115° |
| 2026-04-30 08:41 | -33.93370 | 151.24428 | 3826 ft | 186 kts | 115° |
| 2026-04-30 08:41 | -33.93801 | 151.25878 | 4391 ft | 189 kts | 98° |
| 2026-04-30 08:41 | -33.93821 | 151.27542 | 4755 ft | 207 kts | 86° |
| 2026-04-30 08:42 | -33.93750 | 151.29371 | 5052 ft | 231 kts | 86° |
| 2026-04-30 08:42 | -33.93675 | 151.31398 | 5402 ft | 254 kts | 87° |
| 2026-04-30 08:42 | -33.93601 | 151.33568 | 6068 ft | 262 kts | 87° |
| 2026-04-30 08:42 | -33.93532 | 151.35780 | 6876 ft | 267 kts | 88° |
| 2026-04-30 08:43 | -33.93465 | 151.38027 | 7641 ft | 270 kts | 87° |
| 2026-04-30 08:43 | -33.93399 | 151.40304 | 8415 ft | 274 kts | 87° |
| 2026-04-30 08:43 | -33.93333 | 151.42609 | 9178 ft | 278 kts | 86° |
| 2026-04-30 08:43 | -33.93261 | 151.44953 | 9932 ft | 282 kts | 86° |
| 2026-04-30 08:44 | -33.93189 | 151.47330 | 10625 ft | 287 kts | 86° |
| 2026-04-30 08:44 | -33.93232 | 151.49818 | 10850 ft | 310 kts | 98° |
| 2026-04-30 08:44 | -33.93947 | 151.52363 | 11044 ft | 333 kts | 118° |
| 2026-04-30 08:44 | -33.95417 | 151.54564 | 11531 ft | 343 kts | 138° |
| 2026-04-30 08:45 | -33.97457 | 151.56088 | 12130 ft | 350 kts | 158° |
| 2026-04-30 08:45 | -33.99857 | 151.56608 | 12737 ft | 355 kts | 182° |
| 2026-04-30 08:45 | -34.02251 | 151.55897 | 13356 ft | 358 kts | 207° |
| 2026-04-30 08:45 | -34.04210 | 151.54060 | 13987 ft | 360 kts | 229° |
| 2026-04-30 08:46 | -34.05831 | 151.51753 | 14581 ft | 362 kts | 230° |
| 2026-04-30 08:46 | -34.07449 | 151.49410 | 15146 ft | 365 kts | 231° |
| 2026-04-30 08:46 | -34.09079 | 151.47046 | 15680 ft | 368 kts | 230° |
| 2026-04-30 08:46 | -34.10726 | 151.44661 | 16226 ft | 371 kts | 230° |
| 2026-04-30 08:47 | -34.12388 | 151.42260 | 16761 ft | 374 kts | 230° |
| 2026-04-30 08:47 | -34.14064 | 151.39840 | 17298 ft | 377 kts | 230° |
| 2026-04-30 08:47 | -34.15754 | 151.37400 | 17834 ft | 380 kts | 230° |
| 2026-04-30 08:47 | -34.17457 | 151.34935 | 18382 ft | 383 kts | 230° |
| 2026-04-30 08:48 | -34.19169 | 151.32456 | 18888 ft | 387 kts | 230° |
| 2026-04-30 08:48 | -34.20900 | 151.29953 | 19368 ft | 389 kts | 229° |
| 2026-04-30 08:48 | -34.22640 | 151.27433 | 19858 ft | 392 kts | 230° |
| 2026-04-30 08:48 | -34.24393 | 151.24895 | 20355 ft | 394 kts | 229° |
| 2026-04-30 08:49 | -34.26159 | 151.22340 | 20841 ft | 397 kts | 229° |
| 2026-04-30 08:49 | -34.27933 | 151.19772 | 21310 ft | 399 kts | 229° |
| 2026-04-30 08:49 | -34.29716 | 151.17183 | 21769 ft | 402 kts | 229° |
| 2026-04-30 08:49 | -34.31506 | 151.14582 | 22228 ft | 404 kts | 229° |
| 2026-04-30 08:50 | -34.33312 | 151.11959 | 22671 ft | 406 kts | 230° |
| 2026-04-30 08:50 | -34.35123 | 151.09327 | 23111 ft | 409 kts | 230° |
| 2026-04-30 08:50 | -34.36950 | 151.06673 | 23540 ft | 411 kts | 230° |
| 2026-04-30 08:50 | -34.38165 | 151.04907 | 23823 ft | 413 kts | 230° |
| 2026-04-30 08:51 | -34.40629 | 151.01312 | 24342 ft | 416 kts | 230° |
| 2026-04-30 08:51 | -34.41852 | 150.99524 | 24576 ft | 417 kts | 230° |
| 2026-04-30 08:51 | -34.43709 | 150.96808 | 24951 ft | 419 kts | 230° |
| 2026-04-30 08:51 | -34.45573 | 150.94079 | 25315 ft | 421 kts | 229° |
| 2026-04-30 08:52 | -34.47445 | 150.91341 | 25676 ft | 423 kts | 229° |
| 2026-04-30 08:52 | -34.49961 | 150.87659 | 26168 ft | 425 kts | 230° |
| 2026-04-30 08:52 | -34.51214 | 150.85826 | 26405 ft | 426 kts | 229° |
| 2026-04-30 08:52 | -34.53107 | 150.83053 | 26755 ft | 428 kts | 229° |
| 2026-04-30 08:53 | -34.55008 | 150.80261 | 27096 ft | 430 kts | 229° |
| 2026-04-30 08:53 | -34.56892 | 150.77435 | 27446 ft | 432 kts | 231° |
| 2026-04-30 08:53 | -34.58717 | 150.74526 | 27790 ft | 434 kts | 232° |
| 2026-04-30 08:53 | -34.60497 | 150.71558 | 28134 ft | 436 kts | 233° |
| 2026-04-30 08:54 | -34.62260 | 150.68550 | 28472 ft | 438 kts | 233° |
| 2026-04-30 08:54 | -34.64025 | 150.65529 | 28821 ft | 440 kts | 233° |
| 2026-04-30 08:54 | -34.65813 | 150.62497 | 29166 ft | 442 kts | 233° |
| 2026-04-30 08:54 | -34.67611 | 150.59470 | 29507 ft | 444 kts | 233° |
| 2026-04-30 08:55 | -34.69430 | 150.56433 | 29839 ft | 446 kts | 233° |
| 2026-04-30 08:55 | -34.71263 | 150.53391 | 30266 ft | 445 kts | 233° |
| 2026-04-30 08:55 | -34.73087 | 150.50367 | 30719 ft | 444 kts | 233° |
| 2026-04-30 08:55 | -34.74908 | 150.47342 | 31138 ft | 442 kts | 233° |
| 2026-04-30 08:56 | -34.76717 | 150.44327 | 31537 ft | 441 kts | 233° |
| 2026-04-30 08:56 | -34.78522 | 150.41313 | 31941 ft | 440 kts | 233° |
| 2026-04-30 08:56 | -34.80323 | 150.38303 | 32314 ft | 440 kts | 233° |
| 2026-04-30 08:56 | -34.82123 | 150.35291 | 32424 ft | 439 kts | 233° |
| 2026-04-30 08:57 | -34.83912 | 150.32292 | 32450 ft | 438 kts | 233° |
| 2026-04-30 08:57 | -34.87478 | 150.26301 | 32435 ft | 437 kts | 233° |
| 2026-04-30 08:58 | -34.91038 | 150.20311 | 32448 ft | 436 kts | 233° |
| 2026-04-30 08:58 | -34.94592 | 150.14326 | 32443 ft | 436 kts | 233° |
| 2026-04-30 08:59 | -34.98142 | 150.08342 | 32441 ft | 436 kts | 233° |
| 2026-04-30 08:59 | -35.01690 | 150.02357 | 32435 ft | 435 kts | 233° |
| 2026-04-30 09:00 | -35.05237 | 149.96364 | 32441 ft | 435 kts | 234° |
| 2026-04-30 09:00 | -35.08777 | 149.90369 | 32440 ft | 435 kts | 234° |
| 2026-04-30 09:01 | -35.12311 | 149.84362 | 32439 ft | 435 kts | 234° |
| 2026-04-30 09:01 | -35.15880 | 149.78293 | 32837 ft | 442 kts | 234° |
| 2026-04-30 09:01 | -35.17672 | 149.75241 | 33205 ft | 442 kts | 234° |
| 2026-04-30 09:02 | -35.21239 | 149.69145 | 33993 ft | 440 kts | 234° |
| 2026-04-30 09:02 | -35.23019 | 149.66101 | 34360 ft | 440 kts | 234° |
| 2026-04-30 09:02 | -35.24802 | 149.63055 | 34431 ft | 440 kts | 234° |
| 2026-04-30 09:03 | -35.28358 | 149.56984 | 34439 ft | 439 kts | 234° |
| 2026-04-30 09:03 | -35.31908 | 149.50914 | 34441 ft | 438 kts | 234° |
| 2026-04-30 09:04 | -35.35440 | 149.44839 | 34432 ft | 438 kts | 234° |
| 2026-04-30 09:04 | -35.38971 | 149.38757 | 34438 ft | 438 kts | 234° |
| 2026-04-30 09:05 | -35.42499 | 149.32661 | 34437 ft | 439 kts | 234° |
| 2026-04-30 09:05 | -35.46027 | 149.26562 | 34440 ft | 439 kts | 235° |
| 2026-04-30 09:06 | -35.49564 | 149.20453 | 34440 ft | 439 kts | 235° |
| 2026-04-30 09:06 | -35.53103 | 149.14346 | 34448 ft | 439 kts | 235° |
| 2026-04-30 09:07 | -35.56623 | 149.08222 | 34453 ft | 439 kts | 235° |
| 2026-04-30 09:07 | -35.60143 | 149.02094 | 34464 ft | 439 kts | 235° |
| 2026-04-30 09:08 | -35.63665 | 148.95977 | 34469 ft | 438 kts | 235° |
| 2026-04-30 09:08 | -35.67177 | 148.89860 | 34474 ft | 438 kts | 235° |
| 2026-04-30 09:09 | -35.70678 | 148.83733 | 34474 ft | 438 kts | 236° |
| 2026-04-30 09:09 | -35.74193 | 148.77573 | 34440 ft | 441 kts | 236° |
| 2026-04-30 09:10 | -35.77730 | 148.71366 | 34440 ft | 444 kts | 236° |
| 2026-04-30 09:10 | -35.81280 | 148.65130 | 34448 ft | 445 kts | 236° |
| 2026-04-30 09:11 | -35.84838 | 148.58878 | 34452 ft | 446 kts | 236° |
| 2026-04-30 09:11 | -35.88398 | 148.52607 | 34457 ft | 446 kts | 236° |
| 2026-04-30 09:12 | -35.91942 | 148.46322 | 34457 ft | 446 kts | 236° |
| 2026-04-30 09:12 | -35.95484 | 148.40026 | 34452 ft | 447 kts | 236° |
| 2026-04-30 09:13 | -35.99022 | 148.33718 | 34448 ft | 447 kts | 236° |
| 2026-04-30 09:13 | -36.02559 | 148.27407 | 34442 ft | 447 kts | 237° |
| 2026-04-30 09:14 | -36.06100 | 148.21088 | 34440 ft | 447 kts | 237° |
| 2026-04-30 09:14 | -36.09638 | 148.14761 | 34431 ft | 447 kts | 237° |
| 2026-04-30 09:15 | -36.13176 | 148.08425 | 34425 ft | 448 kts | 237° |
| 2026-04-30 09:15 | -36.16721 | 148.02088 | 34418 ft | 448 kts | 237° |
| 2026-04-30 09:16 | -36.20266 | 147.95744 | 34414 ft | 448 kts | 237° |
| 2026-04-30 09:16 | -36.23804 | 147.89381 | 34409 ft | 448 kts | 237° |
| 2026-04-30 09:17 | -36.27342 | 147.83020 | 34414 ft | 449 kts | 237° |
| 2026-04-30 09:17 | -36.30882 | 147.76648 | 34411 ft | 449 kts | 237° |
| 2026-04-30 09:18 | -36.34421 | 147.70270 | 34409 ft | 449 kts | 237° |
| 2026-04-30 09:18 | -36.37945 | 147.63873 | 34402 ft | 449 kts | 238° |
| 2026-04-30 09:19 | -36.41468 | 147.57464 | 34402 ft | 449 kts | 238° |
| 2026-04-30 09:19 | -36.44987 | 147.51054 | 34404 ft | 449 kts | 238° |
| 2026-04-30 09:20 | -36.48506 | 147.44633 | 34404 ft | 450 kts | 238° |
| 2026-04-30 09:20 | -36.52034 | 147.38215 | 34404 ft | 450 kts | 238° |
| 2026-04-30 09:21 | -36.55550 | 147.31793 | 34409 ft | 449 kts | 238° |
| 2026-04-30 09:21 | -36.59050 | 147.25362 | 34414 ft | 449 kts | 238° |
| 2026-04-30 09:22 | -36.62550 | 147.18929 | 34421 ft | 448 kts | 239° |
| 2026-04-30 09:22 | -36.66035 | 147.12504 | 34425 ft | 448 kts | 239° |
| 2026-04-30 09:23 | -36.69515 | 147.06072 | 34428 ft | 447 kts | 239° |
| 2026-04-30 09:23 | -36.72996 | 146.99656 | 34424 ft | 447 kts | 239° |
| 2026-04-30 09:24 | -36.76470 | 146.93236 | 34424 ft | 446 kts | 239° |
| 2026-04-30 09:24 | -36.79931 | 146.86811 | 34423 ft | 446 kts | 239° |
| 2026-04-30 09:25 | -36.83383 | 146.80390 | 34358 ft | 444 kts | 239° |
| 2026-04-30 09:25 | -36.85106 | 146.77186 | 33693 ft | 445 kts | 240° |
| 2026-04-30 09:25 | -36.86835 | 146.73969 | 32906 ft | 447 kts | 240° |
| 2026-04-30 09:26 | -36.88573 | 146.70731 | 32122 ft | 450 kts | 240° |
| 2026-04-30 09:26 | -36.90318 | 146.67472 | 31350 ft | 453 kts | 240° |
| 2026-04-30 09:26 | -36.92075 | 146.64188 | 30577 ft | 455 kts | 240° |
| 2026-04-30 09:26 | -36.93837 | 146.60893 | 29684 ft | 458 kts | 240° |
| 2026-04-30 09:27 | -36.95610 | 146.57573 | 28758 ft | 460 kts | 240° |
| 2026-04-30 09:27 | -36.97386 | 146.54246 | 27825 ft | 462 kts | 240° |
| 2026-04-30 09:27 | -36.99175 | 146.50897 | 26885 ft | 464 kts | 240° |
| 2026-04-30 09:27 | -37.00969 | 146.47536 | 25937 ft | 466 kts | 240° |
| 2026-04-30 09:28 | -37.02772 | 146.44152 | 24968 ft | 468 kts | 240° |
| 2026-04-30 09:28 | -37.04581 | 146.40749 | 23977 ft | 471 kts | 240° |
| 2026-04-30 09:28 | -37.06393 | 146.37329 | 22750 ft | 473 kts | 240° |
| 2026-04-30 09:28 | -37.08215 | 146.33886 | 21534 ft | 475 kts | 240° |
| 2026-04-30 09:29 | -37.10038 | 146.30445 | 20546 ft | 472 kts | 240° |
| 2026-04-30 09:29 | -37.11813 | 146.27104 | 20033 ft | 445 kts | 240° |
| 2026-04-30 09:29 | -37.13475 | 146.23991 | 19793 ft | 414 kts | 240° |
| 2026-04-30 09:29 | -37.15028 | 146.21082 | 19476 ft | 391 kts | 240° |
| 2026-04-30 09:30 | -37.16513 | 146.18283 | 18799 ft | 381 kts | 240° |
| 2026-04-30 09:30 | -37.17963 | 146.15530 | 17906 ft | 376 kts | 240° |
| 2026-04-30 09:30 | -37.19389 | 146.12812 | 17025 ft | 370 kts | 240° |
| 2026-04-30 09:30 | -37.20788 | 146.10136 | 16368 ft | 360 kts | 240° |
| 2026-04-30 09:31 | -37.21679 | 146.08437 | 16281 ft | 344 kts | 240° |
| 2026-04-30 09:31 | -37.22962 | 146.05996 | 15900 ft | 329 kts | 240° |
| 2026-04-30 09:31 | -37.24211 | 146.03617 | 15344 ft | 324 kts | 240° |
| 2026-04-30 09:31 | -37.25852 | 146.00485 | 14549 ft | 319 kts | 240° |
| 2026-04-30 09:32 | -37.27063 | 145.98172 | 13945 ft | 316 kts | 240° |
| 2026-04-30 09:32 | -37.27859 | 145.96651 | 13519 ft | 314 kts | 240° |
| 2026-04-30 09:32 | -37.29051 | 145.94377 | 12872 ft | 310 kts | 240° |
| 2026-04-30 09:32 | -37.30234 | 145.92124 | 12224 ft | 307 kts | 240° |
| 2026-04-30 09:33 | -37.31403 | 145.89898 | 11590 ft | 304 kts | 240° |
| 2026-04-30 09:33 | -37.32563 | 145.87691 | 11016 ft | 301 kts | 240° |
| 2026-04-30 09:33 | -37.33709 | 145.85510 | 10453 ft | 298 kts | 240° |
| 2026-04-30 09:33 | -37.34844 | 145.83349 | 9897 ft | 294 kts | 240° |
| 2026-04-30 09:34 | -37.35959 | 145.81226 | 9747 ft | 288 kts | 240° |
| 2026-04-30 09:34 | -37.37057 | 145.79134 | 9620 ft | 286 kts | 240° |
| 2026-04-30 09:34 | -37.38152 | 145.77046 | 9490 ft | 286 kts | 240° |
| 2026-04-30 09:34 | -37.39243 | 145.74961 | 9359 ft | 285 kts | 240° |
| 2026-04-30 09:35 | -37.40331 | 145.72878 | 9217 ft | 285 kts | 240° |
| 2026-04-30 09:35 | -37.41417 | 145.70794 | 9098 ft | 284 kts | 240° |
| 2026-04-30 09:35 | -37.42498 | 145.68716 | 9032 ft | 284 kts | 240° |
| 2026-04-30 09:35 | -37.43583 | 145.66633 | 9034 ft | 285 kts | 240° |
| 2026-04-30 09:36 | -37.44645 | 145.64534 | 9035 ft | 283 kts | 245° |
| 2026-04-30 09:36 | -37.45460 | 145.62304 | 9032 ft | 279 kts | 254° |
| 2026-04-30 09:36 | -37.46075 | 145.59985 | 9031 ft | 279 kts | 255° |
| 2026-04-30 09:36 | -37.46690 | 145.57668 | 9031 ft | 279 kts | 255° |
| 2026-04-30 09:37 | -37.47307 | 145.55352 | 9032 ft | 279 kts | 255° |
| 2026-04-30 09:37 | -37.47923 | 145.53037 | 9024 ft | 279 kts | 255° |
| 2026-04-30 09:37 | -37.48539 | 145.50726 | 9025 ft | 279 kts | 255° |
| 2026-04-30 09:37 | -37.49157 | 145.48410 | 9026 ft | 279 kts | 255° |
| 2026-04-30 09:38 | -37.49776 | 145.46098 | 9021 ft | 279 kts | 255° |
| 2026-04-30 09:38 | -37.50395 | 145.43782 | 9019 ft | 279 kts | 255° |
| 2026-04-30 09:38 | -37.51012 | 145.41462 | 9018 ft | 279 kts | 255° |
| 2026-04-30 09:38 | -37.51625 | 145.39146 | 9015 ft | 279 kts | 255° |
| 2026-04-30 09:39 | -37.53520 | 145.31975 | 9013 ft | 279 kts | 256° |
| 2026-04-30 09:39 | -37.54120 | 145.29698 | 9014 ft | 280 kts | 255° |
| 2026-04-30 09:40 | -37.54731 | 145.27376 | 9012 ft | 279 kts | 255° |
| 2026-04-30 09:40 | -37.56585 | 145.20331 | 9007 ft | 279 kts | 255° |
| 2026-04-30 09:41 | -37.57190 | 145.18038 | 9005 ft | 279 kts | 255° |
| 2026-04-30 09:41 | -37.57801 | 145.15714 | 9009 ft | 279 kts | 255° |
| 2026-04-30 09:41 | -37.58414 | 145.13392 | 9008 ft | 279 kts | 255° |
| 2026-04-30 09:41 | -37.59027 | 145.11069 | 9008 ft | 279 kts | 255° |
| 2026-04-30 09:42 | -37.59635 | 145.08741 | 9007 ft | 279 kts | 255° |
| 2026-04-30 09:42 | -37.60242 | 145.06414 | 9011 ft | 279 kts | 255° |
| 2026-04-30 09:42 | -37.60720 | 145.04060 | 9003 ft | 275 kts | 270° |
| 2026-04-30 09:42 | -37.60405 | 145.01735 | 9006 ft | 269 kts | 297° |
| 2026-04-30 09:43 | -37.59269 | 144.99903 | 9010 ft | 267 kts | 323° |
| 2026-04-30 09:43 | -37.57577 | 144.98980 | 9010 ft | 269 kts | 350° |
| 2026-04-30 09:43 | -37.55709 | 144.99182 | 9010 ft | 275 kts | 17° |
| 2026-04-30 09:43 | -37.54088 | 145.00489 | 9007 ft | 284 kts | 43° |
| 2026-04-30 09:44 | -37.53081 | 145.02640 | 9007 ft | 292 kts | 70° |
| 2026-04-30 09:44 | -37.52737 | 145.05186 | 9009 ft | 297 kts | 82° |
| 2026-04-30 09:44 | -37.52934 | 145.07780 | 9004 ft | 302 kts | 107° |
| 2026-04-30 09:44 | -37.54001 | 145.10055 | 9005 ft | 305 kts | 134° |
| 2026-04-30 09:45 | -37.55696 | 145.11646 | 9009 ft | 305 kts | 150° |
| 2026-04-30 09:45 | -37.57542 | 145.12975 | 9008 ft | 305 kts | 152° |
| 2026-04-30 09:45 | -37.59399 | 145.14274 | 9006 ft | 305 kts | 152° |
| 2026-04-30 09:45 | -37.61260 | 145.15571 | 9009 ft | 305 kts | 152° |
| 2026-04-30 09:46 | -37.63121 | 145.16865 | 9004 ft | 305 kts | 152° |
| 2026-04-30 09:46 | -37.64979 | 145.18157 | 9005 ft | 305 kts | 152° |
| 2026-04-30 09:46 | -37.66934 | 145.19143 | 9002 ft | 302 kts | 171° |
| 2026-04-30 09:46 | -37.69003 | 145.19218 | 8768 ft | 295 kts | 193° |
| 2026-04-30 09:47 | -37.70892 | 145.18332 | 8446 ft | 287 kts | 216° |
| 2026-04-30 09:47 | -37.72359 | 145.16689 | 8108 ft | 280 kts | 236° |
| 2026-04-30 09:47 | -37.73496 | 145.14700 | 7764 ft | 279 kts | 238° |
| 2026-04-30 09:47 | -37.74626 | 145.12710 | 7444 ft | 278 kts | 238° |
| 2026-04-30 09:48 | -37.75757 | 145.10724 | 7142 ft | 278 kts | 238° |
| 2026-04-30 09:48 | -37.76886 | 145.08752 | 6852 ft | 277 kts | 238° |
| 2026-04-30 09:48 | -37.77991 | 145.06769 | 6527 ft | 274 kts | 243° |
| 2026-04-30 09:48 | -37.78728 | 145.04584 | 6196 ft | 268 kts | 259° |
| 2026-04-30 09:49 | -37.78964 | 145.02313 | 5887 ft | 262 kts | 275° |
| 2026-04-30 09:49 | -37.78729 | 145.00060 | 5569 ft | 257 kts | 289° |
| 2026-04-30 09:49 | -37.78061 | 144.97990 | 5194 ft | 255 kts | 303° |
| 2026-04-30 09:49 | -37.77104 | 144.96094 | 4746 ft | 259 kts | 300° |
| 2026-04-30 09:50 | -37.76685 | 144.93848 | 4230 ft | 272 kts | 273° |
| 2026-04-30 09:50 | -37.77145 | 144.91492 | 3555 ft | 283 kts | 247° |
| 2026-04-30 09:50 | -37.78132 | 144.89345 | 3108 ft | 277 kts | 242° |
| 2026-04-30 09:50 | -37.79134 | 144.87361 | 2994 ft | 258 kts | 242° |
| 2026-04-30 09:51 | -37.80066 | 144.85550 | 3003 ft | 236 kts | 242° |
| 2026-04-30 09:51 | -37.80941 | 144.83867 | 3004 ft | 222 kts | 242° |
| 2026-04-30 09:51 | -37.81780 | 144.82269 | 3005 ft | 215 kts | 242° |
| 2026-04-30 09:51 | -37.82794 | 144.80882 | 3003 ft | 217 kts | 213° |
| 2026-04-30 09:52 | -37.84168 | 144.80429 | 3006 ft | 197 kts | 180° |
| 2026-04-30 09:52 | -37.85454 | 144.80555 | 3028 ft | 179 kts | 173° |
| 2026-04-30 09:52 | -37.86668 | 144.80760 | 3001 ft | 173 kts | 172° |
| 2026-04-30 09:52 | -37.87850 | 144.80976 | 2995 ft | 171 kts | 172° |
| 2026-04-30 09:53 | -37.89027 | 144.81187 | 2995 ft | 171 kts | 172° |
| 2026-04-30 09:53 | -37.90201 | 144.81400 | 2996 ft | 171 kts | 172° |
| 2026-04-30 09:53 | -37.91373 | 144.81615 | 2993 ft | 171 kts | 172° |
| 2026-04-30 09:53 | -37.92540 | 144.81875 | 2986 ft | 170 kts | 158° |
| 2026-04-30 09:54 | -37.93385 | 144.82824 | 2995 ft | 160 kts | 108° |
| 2026-04-30 09:54 | -37.93721 | 144.84140 | 2992 ft | 156 kts | 95° |
| 2026-04-30 09:54 | -37.93936 | 144.85478 | 2990 ft | 155 kts | 92° |
| 2026-04-30 09:54 | -37.94130 | 144.86825 | 2993 ft | 156 kts | 92° |
| 2026-04-30 09:55 | -37.94269 | 144.88172 | 2993 ft | 151 kts | 81° |
| 2026-04-30 09:55 | -37.94173 | 144.89477 | 2993 ft | 148 kts | 73° |
| 2026-04-30 09:55 | -37.94013 | 144.90760 | 2991 ft | 147 kts | 72° |
| 2026-04-30 09:55 | -37.93844 | 144.92035 | 2992 ft | 147 kts | 72° |
| 2026-04-30 09:56 | -37.93672 | 144.93316 | 2994 ft | 148 kts | 72° |
| 2026-04-30 09:56 | -37.93501 | 144.94580 | 2992 ft | 147 kts | 72° |
| 2026-04-30 09:56 | -37.93324 | 144.95876 | 2995 ft | 147 kts | 71° |
| 2026-04-30 09:56 | -37.93153 | 144.97154 | 2991 ft | 147 kts | 72° |
| 2026-04-30 09:57 | -37.92866 | 144.98357 | 2991 ft | 137 kts | 44° |
| 2026-04-30 09:57 | -37.92081 | 144.98865 | 3004 ft | 132 kts | 3° |
| 2026-04-30 09:57 | -37.91141 | 144.98834 | 3005 ft | 137 kts | 354° |
| 2026-04-30 09:57 | -37.90188 | 144.98691 | 3002 ft | 138 kts | 352° |
| 2026-04-30 09:58 | -37.89233 | 144.98530 | 3003 ft | 139 kts | 352° |
| 2026-04-30 09:58 | -37.88274 | 144.98368 | 2998 ft | 139 kts | 352° |
| 2026-04-30 09:58 | -37.87316 | 144.98200 | 3001 ft | 139 kts | 352° |
| 2026-04-30 09:58 | -37.86358 | 144.98039 | 3000 ft | 139 kts | 352° |
| 2026-04-30 09:59 | -37.84597 | 144.97211 | 3001 ft | 145 kts | 307° |
| 2026-04-30 09:59 | -37.83964 | 144.94863 | 2742 ft | 137 kts | 292° |
| 2026-04-30 10:00 | -37.83503 | 144.92512 | 2518 ft | 140 kts | 292° |
| 2026-04-30 10:00 | -37.83272 | 144.91316 | 2511 ft | 140 kts | 292° |
| 2026-04-30 10:01 | -37.82568 | 144.89090 | 2510 ft | 134 kts | 309° |
| 2026-04-30 10:01 | -37.82212 | 144.88453 | 2507 ft | 134 kts | 315° |
| 2026-04-30 10:01 | -37.81567 | 144.87600 | 2509 ft | 135 kts | 324° |
| 2026-04-30 10:02 | -37.79960 | 144.86385 | 2475 ft | 137 kts | 342° |
| 2026-04-30 10:02 | -37.79041 | 144.86075 | 2356 ft | 137 kts | 351° |
| 2026-04-30 10:02 | -37.78098 | 144.85887 | 2210 ft | 137 kts | 352° |
| 2026-04-30 10:02 | -37.77156 | 144.85704 | 2027 ft | 137 kts | 353° |
| 2026-04-30 10:03 | -37.76186 | 144.85521 | 1856 ft | 141 kts | 352° |
| 2026-04-30 10:03 | -37.75230 | 144.85344 | 1668 ft | 138 kts | 354° |
| 2026-04-30 10:03 | -37.74282 | 144.85181 | 1470 ft | 138 kts | 353° |
| 2026-04-30 10:03 | -37.73345 | 144.84998 | 1297 ft | 136 kts | 353° |
| 2026-04-30 10:04 | -37.72405 | 144.84821 | 1118 ft | 137 kts | 353° |
| 2026-04-30 10:04 | -37.71459 | 144.84646 | 958 ft | 137 kts | 351° |
| 2026-04-30 10:04 | -37.70511 | 144.84462 | 767 ft | 139 kts | 351° |
| 2026-04-30 10:04 | -37.69565 | 144.84282 | 593 ft | 137 kts | 352° |
| 2026-04-30 10:05 | -37.68630 | 144.84110 | 393 ft | 137 kts | 352° |
| 2026-04-30 10:05 | -37.67770 | 144.83950 | 369 ft | 102 kts | 352° |
| 2026-04-30 10:05 | -37.67219 | 144.83848 | 389 ft | 58 kts | 351° |
| 2026-04-30 10:05 | -37.67012 | 144.83847 | 390 ft | 22 kts | 8° |
| 2026-04-30 10:06 | -37.66887 | 144.83890 | 393 ft | 15 kts | 21° |
| 2026-04-30 10:06 | -37.66802 | 144.83932 | 398 ft | 8 kts | 21° |
| 2026-04-30 10:06 | -37.66748 | 144.83963 | 399 ft | 9 kts | 32° |
| 2026-04-30 10:06 | -37.66719 | 144.84050 | 401 ft | 15 kts | 80° |
| 2026-04-30 10:07 | -37.66741 | 144.84149 | 402 ft | 12 kts | 124° |
| 2026-04-30 10:07 | -37.66826 | 144.84199 | 397 ft | 15 kts | 171° |
| 2026-04-30 10:07 | -37.66937 | 144.84220 | 395 ft | 18 kts | 170° |
| 2026-04-30 10:07 | -37.67036 | 144.84245 | 392 ft | 12 kts | 152° |
| 2026-04-30 10:08 | -37.67054 | 144.84340 | 392 ft | 11 kts | 82° |
| 2026-04-30 10:08 | -37.67038 | 144.84433 | 395 ft | 10 kts | 68° |
| 2026-04-30 10:08 | -37.67014 | 144.84505 | 397 ft | 8 kts | 79° |
| 2026-04-30 10:08 | -37.67018 | 144.84558 | 398 ft | 2 kts | 143° |
| 2026-04-30 10:09 | -37.67033 | 144.84564 | 393 ft | 6 kts | 159° |
| 2026-04-30 10:09 | -37.67064 | 144.84572 | 396 ft | 3 kts | 167° |
| 2026-04-30 10:09 | -37.67069 | 144.84574 | 395 ft | 0 kts | 168° |